<?xml version="1.0" encoding="UTF-8" standalone="no" ?>
<gpx xmlns="http://www.topografix.com/GPX/1/1" xmlns:xsi="http://www.w3.org/2001/XMLSchema-instance" xsi:schemaLocation="http://www.topografix.com/GPX/1/1 http://www.topografix.com/GPX/1/1/gpx.xsd" version="1.1" creator="VisuGPX - https://www.visugpx.com">
  <metadata>
    <name>Etape 2 Férel - Les Moûtiers</name>
    <desc><![CDATA[Randonnée vélo Rennes - Hendaye, empruntant la Vélodyssée à partir de Saint-Brevin-Les-Pins. ]]></desc>
  </metadata>
  <trk>
    <name><![CDATA[Sequence 34]]></name>
    <trkseg>
      <trkpt lat="47.06357" lon="-1.99941">
        <ele>6</ele>
        <time>2016-07-22T15:29:36Z</time>
      </trkpt>
      <trkpt lat="47.0636" lon="-1.99925">
        <ele>8</ele>
        <time>2016-07-22T15:29:39Z</time>
      </trkpt>
      <trkpt lat="47.06363" lon="-1.999">
        <ele>5</ele>
        <time>2016-07-22T15:29:44Z</time>
      </trkpt>
      <trkpt lat="47.06358" lon="-1.99882">
        <ele>1</ele>
        <time>2016-07-22T15:29:49Z</time>
      </trkpt>
      <trkpt lat="47.06357" lon="-1.99857">
        <ele>-5</ele>
        <time>2016-07-22T15:29:54Z</time>
      </trkpt>
      <trkpt lat="47.0636" lon="-1.99814">
        <ele>-5</ele>
        <time>2016-07-22T15:30:01Z</time>
      </trkpt>
      <trkpt lat="47.06361" lon="-1.99797">
        <ele>-4</ele>
        <time>2016-07-22T15:30:04Z</time>
      </trkpt>
      <trkpt lat="47.06363" lon="-1.99768">
        <ele>-5</ele>
        <time>2016-07-22T15:30:09Z</time>
      </trkpt>
      <trkpt lat="47.06363" lon="-1.99733">
        <ele>-2</ele>
        <time>2016-07-22T15:30:14Z</time>
      </trkpt>
      <trkpt lat="47.06362" lon="-1.9969">
        <ele>7</ele>
        <time>2016-07-22T15:30:20Z</time>
      </trkpt>
      <trkpt lat="47.06363" lon="-1.99634">
        <ele>2</ele>
        <time>2016-07-22T15:30:27Z</time>
      </trkpt>
      <trkpt lat="47.06366" lon="-1.99598">
        <ele>3</ele>
        <time>2016-07-22T15:30:31Z</time>
      </trkpt>
      <trkpt lat="47.0637" lon="-1.99545">
        <ele>5</ele>
        <time>2016-07-22T15:30:37Z</time>
      </trkpt>
      <trkpt lat="47.06373" lon="-1.99505">
        <ele>6</ele>
        <time>2016-07-22T15:30:42Z</time>
      </trkpt>
      <trkpt lat="47.06373" lon="-1.99489">
        <ele>6</ele>
        <time>2016-07-22T15:30:44Z</time>
      </trkpt>
      <trkpt lat="47.06374" lon="-1.99449">
        <ele>6</ele>
        <time>2016-07-22T15:30:49Z</time>
      </trkpt>
      <trkpt lat="47.06373" lon="-1.99411">
        <ele>6</ele>
        <time>2016-07-22T15:30:54Z</time>
      </trkpt>
      <trkpt lat="47.0637" lon="-1.9937">
        <ele>10</ele>
        <time>2016-07-22T15:30:59Z</time>
      </trkpt>
      <trkpt lat="47.06368" lon="-1.99332">
        <ele>10</ele>
        <time>2016-07-22T15:31:04Z</time>
      </trkpt>
      <trkpt lat="47.06372" lon="-1.9928">
        <ele>10</ele>
        <time>2016-07-22T15:31:11Z</time>
      </trkpt>
      <trkpt lat="47.06372" lon="-1.99258">
        <ele>10</ele>
        <time>2016-07-22T15:31:14Z</time>
      </trkpt>
      <trkpt lat="47.06373" lon="-1.99221">
        <ele>10</ele>
        <time>2016-07-22T15:31:19Z</time>
      </trkpt>
      <trkpt lat="47.0638" lon="-1.99185">
        <ele>10</ele>
        <time>2016-07-22T15:31:24Z</time>
      </trkpt>
      <trkpt lat="47.06384" lon="-1.9915">
        <ele>10</ele>
        <time>2016-07-22T15:31:29Z</time>
      </trkpt>
      <trkpt lat="47.0638" lon="-1.99116">
        <ele>12</ele>
        <time>2016-07-22T15:31:34Z</time>
      </trkpt>
      <trkpt lat="47.06377" lon="-1.9908">
        <ele>10</ele>
        <time>2016-07-22T15:31:39Z</time>
      </trkpt>
      <trkpt lat="47.06372" lon="-1.99046">
        <ele>10</ele>
        <time>2016-07-22T15:31:44Z</time>
      </trkpt>
      <trkpt lat="47.06367" lon="-1.99025">
        <ele>11</ele>
        <time>2016-07-22T15:31:49Z</time>
      </trkpt>
      <trkpt lat="47.06367" lon="-1.99024">
        <ele>11</ele>
        <time>2016-07-22T15:31:54Z</time>
      </trkpt>
      <trkpt lat="47.06367" lon="-1.99024">
        <ele>11</ele>
        <time>2016-07-22T15:31:59Z</time>
      </trkpt>
      <trkpt lat="47.06367" lon="-1.99023">
        <ele>12</ele>
        <time>2016-07-22T15:32:04Z</time>
      </trkpt>
      <trkpt lat="47.06366" lon="-1.99003">
        <ele>12</ele>
        <time>2016-07-22T15:32:09Z</time>
      </trkpt>
      <trkpt lat="47.06364" lon="-1.9897">
        <ele>12</ele>
        <time>2016-07-22T15:32:14Z</time>
      </trkpt>
      <trkpt lat="47.06369" lon="-1.98935">
        <ele>10</ele>
        <time>2016-07-22T15:32:19Z</time>
      </trkpt>
      <trkpt lat="47.06372" lon="-1.98906">
        <ele>12</ele>
        <time>2016-07-22T15:32:24Z</time>
      </trkpt>
      <trkpt lat="47.06377" lon="-1.98877">
        <ele>13</ele>
        <time>2016-07-22T15:32:29Z</time>
      </trkpt>
      <trkpt lat="47.06375" lon="-1.98846">
        <ele>13</ele>
        <time>2016-07-22T15:32:34Z</time>
      </trkpt>
      <trkpt lat="47.06362" lon="-1.98815">
        <ele>13</ele>
        <time>2016-07-22T15:32:39Z</time>
      </trkpt>
      <trkpt lat="47.06353" lon="-1.98783">
        <ele>12</ele>
        <time>2016-07-22T15:32:44Z</time>
      </trkpt>
      <trkpt lat="47.06343" lon="-1.98747">
        <ele>13</ele>
        <time>2016-07-22T15:32:49Z</time>
      </trkpt>
      <trkpt lat="47.06332" lon="-1.98716">
        <ele>13</ele>
        <time>2016-07-22T15:32:54Z</time>
      </trkpt>
      <trkpt lat="47.06318" lon="-1.98686">
        <ele>13</ele>
        <time>2016-07-22T15:32:59Z</time>
      </trkpt>
      <trkpt lat="47.06304" lon="-1.98658">
        <ele>13</ele>
        <time>2016-07-22T15:33:04Z</time>
      </trkpt>
      <trkpt lat="47.06291" lon="-1.98626">
        <ele>13</ele>
        <time>2016-07-22T15:33:09Z</time>
      </trkpt>
      <trkpt lat="47.0628" lon="-1.98594">
        <ele>13</ele>
        <time>2016-07-22T15:33:14Z</time>
      </trkpt>
      <trkpt lat="47.0627" lon="-1.98561">
        <ele>14</ele>
        <time>2016-07-22T15:33:19Z</time>
      </trkpt>
      <trkpt lat="47.06261" lon="-1.98528">
        <ele>15</ele>
        <time>2016-07-22T15:33:24Z</time>
      </trkpt>
      <trkpt lat="47.06253" lon="-1.985">
        <ele>15</ele>
        <time>2016-07-22T15:33:29Z</time>
      </trkpt>
      <trkpt lat="47.06254" lon="-1.9848">
        <ele>15</ele>
        <time>2016-07-22T15:33:34Z</time>
      </trkpt>
      <trkpt lat="47.06278" lon="-1.98464">
        <ele>15</ele>
        <time>2016-07-22T15:33:40Z</time>
      </trkpt>
      <trkpt lat="47.06296" lon="-1.98457">
        <ele>15</ele>
        <time>2016-07-22T15:33:44Z</time>
      </trkpt>
      <trkpt lat="47.06319" lon="-1.98448">
        <ele>15</ele>
        <time>2016-07-22T15:33:49Z</time>
      </trkpt>
      <trkpt lat="47.0634" lon="-1.98439">
        <ele>15</ele>
        <time>2016-07-22T15:33:54Z</time>
      </trkpt>
      <trkpt lat="47.06357" lon="-1.9843">
        <ele>14</ele>
        <time>2016-07-22T15:33:59Z</time>
      </trkpt>
      <trkpt lat="47.06361" lon="-1.9843">
        <ele>14</ele>
        <time>2016-07-22T15:34:04Z</time>
      </trkpt>
      <trkpt lat="47.06362" lon="-1.98428">
        <ele>12</ele>
        <time>2016-07-22T15:34:10Z</time>
      </trkpt>
      <trkpt lat="47.06361" lon="-1.98429">
        <ele>13</ele>
        <time>2016-07-22T15:34:14Z</time>
      </trkpt>
      <trkpt lat="47.06362" lon="-1.98429">
        <ele>13</ele>
        <time>2016-07-22T15:34:19Z</time>
      </trkpt>
      <trkpt lat="47.06361" lon="-1.98427">
        <ele>12</ele>
        <time>2016-07-22T15:34:24Z</time>
      </trkpt>
      <trkpt lat="47.06363" lon="-1.98422">
        <ele>13</ele>
        <time>2016-07-22T15:34:29Z</time>
      </trkpt>
      <trkpt lat="47.06365" lon="-1.98421">
        <ele>15</ele>
        <time>2016-07-22T15:34:34Z</time>
      </trkpt>
      <trkpt lat="47.06365" lon="-1.98423">
        <ele>15</ele>
        <time>2016-07-22T15:34:39Z</time>
      </trkpt>
      <trkpt lat="47.06363" lon="-1.98417">
        <ele>14</ele>
        <time>2016-07-22T15:34:44Z</time>
      </trkpt>
      <trkpt lat="47.06361" lon="-1.98411">
        <ele>13</ele>
        <time>2016-07-22T15:34:49Z</time>
      </trkpt>
      <trkpt lat="47.06359" lon="-1.9841">
        <ele>12</ele>
        <time>2016-07-22T15:34:57Z</time>
      </trkpt>
      <trkpt lat="47.06359" lon="-1.98409">
        <ele>12</ele>
        <time>2016-07-22T15:34:59Z</time>
      </trkpt>
      <trkpt lat="47.06358" lon="-1.98409">
        <ele>12</ele>
        <time>2016-07-22T15:35:04Z</time>
      </trkpt>
      <trkpt lat="47.06358" lon="-1.98409">
        <ele>12</ele>
        <time>2016-07-22T15:35:09Z</time>
      </trkpt>
      <trkpt lat="47.06358" lon="-1.98409">
        <ele>12</ele>
        <time>2016-07-22T15:35:14Z</time>
      </trkpt>
      <trkpt lat="47.06358" lon="-1.98409">
        <ele>12</ele>
        <time>2016-07-22T15:35:19Z</time>
      </trkpt>
      <trkpt lat="47.06358" lon="-1.98409">
        <ele>12</ele>
        <time>2016-07-22T15:35:24Z</time>
      </trkpt>
      <trkpt lat="47.06358" lon="-1.98409">
        <ele>12</ele>
        <time>2016-07-22T15:35:29Z</time>
      </trkpt>
      <trkpt lat="47.06358" lon="-1.98409">
        <ele>12</ele>
        <time>2016-07-22T15:35:36Z</time>
      </trkpt>
      <trkpt lat="47.06358" lon="-1.98409">
        <ele>12</ele>
        <time>2016-07-22T15:35:39Z</time>
      </trkpt>
      <trkpt lat="47.06358" lon="-1.98409">
        <ele>12</ele>
        <time>2016-07-22T15:35:46Z</time>
      </trkpt>
      <trkpt lat="47.06358" lon="-1.98409">
        <ele>12</ele>
        <time>2016-07-22T15:35:49Z</time>
      </trkpt>
      <trkpt lat="47.06358" lon="-1.98409">
        <ele>12</ele>
        <time>2016-07-22T15:35:54Z</time>
      </trkpt>
      <trkpt lat="47.06358" lon="-1.98409">
        <ele>12</ele>
        <time>2016-07-22T15:35:59Z</time>
      </trkpt>
      <trkpt lat="47.06358" lon="-1.98409">
        <ele>12</ele>
        <time>2016-07-22T15:36:07Z</time>
      </trkpt>
    </trkseg>
  </trk>
</gpx>